createdAt,value
2022-09-21T00:04:01.421Z,50.80
2022-09-21T00:09:08.185Z,51.40
2022-09-21T00:14:13.138Z,50.80
2022-09-21T00:19:16.828Z,50.80
2022-09-21T00:24:21.125Z,50.80
2022-09-21T00:29:24.107Z,50.80
2022-09-21T00:34:27.381Z,50.80
2022-09-21T00:39:31.691Z,50.80
2022-09-21T00:44:35.222Z,50.80
2022-09-21T00:49:39.355Z,50.70
2022-09-21T00:54:47.993Z,50.70
2022-09-21T00:59:54.532Z,50.70
2022-09-21T01:04:58.340Z,50.70
2022-09-21T01:10:06.378Z,50.70
2022-09-21T01:15:24.002Z,50.60
2022-09-21T01:20:53.842Z,50.60
2022-09-21T01:26:11.440Z,50.60
2022-09-21T01:31:21.982Z,50.50
2022-09-21T01:36:29.586Z,50.50
2022-09-21T01:41:33.970Z,50.50
2022-09-21T01:46:39.389Z,50.50
2022-09-21T01:51:47.339Z,51.10
2022-09-21T01:56:55.659Z,50.50
2022-09-21T02:02:04.744Z,50.60
2022-09-21T02:07:08.375Z,50.60
2022-09-21T02:12:14.613Z,50.70
2022-09-21T02:17:34.287Z,50.60
2022-09-21T02:22:44.882Z,50.70
2022-09-21T02:27:54.865Z,50.70
2022-09-21T02:33:03.210Z,50.70
2022-09-21T02:38:12.090Z,50.70
2022-09-21T02:43:22.535Z,50.80
2022-09-21T02:48:32.586Z,50.70
2022-09-21T02:53:38.275Z,50.70
2022-09-21T02:58:43.604Z,50.70
2022-09-21T03:03:48.110Z,50.70
2022-09-21T03:08:51.088Z,50.70
2022-09-21T03:13:54.557Z,50.70
2022-09-21T03:18:58.924Z,50.70
2022-09-21T03:24:02.324Z,50.70
2022-09-21T03:29:05.441Z,50.70
2022-09-21T03:34:10.535Z,50.70
2022-09-21T03:39:13.483Z,50.70
2022-09-21T03:44:17.730Z,50.70
2022-09-21T03:49:22.268Z,50.70
2022-09-21T03:54:25.922Z,50.70
2022-09-21T03:59:28.850Z,50.70
2022-09-21T04:04:33.169Z,50.70
2022-09-21T04:09:36.123Z,51.30
2022-09-21T04:14:39.058Z,50.70
2022-09-21T04:19:45.054Z,50.70
2022-09-21T04:24:48.070Z,50.60
2022-09-21T04:29:51.294Z,50.80
2022-09-21T04:34:55.802Z,50.90
2022-09-21T04:39:58.903Z,50.90
2022-09-21T04:45:02.054Z,50.90
2022-09-21T04:50:07.619Z,50.80
2022-09-21T04:55:11.071Z,50.80
2022-09-21T05:00:14.887Z,50.80
2022-09-21T05:05:19.246Z,50.80
2022-09-21T05:10:22.258Z,50.80
2022-09-21T05:15:25.285Z,50.70
2022-09-21T05:20:29.683Z,50.70
2022-09-21T05:25:32.696Z,50.80
2022-09-21T05:30:36.322Z,50.60
2022-09-21T05:35:47.716Z,49.50
2022-09-21T05:40:51.267Z,48.90
2022-09-21T05:45:59.571Z,47.20
2022-09-21T05:51:10.848Z,45.40
2022-09-21T05:56:23.876Z,45.60
2022-09-21T06:01:38.355Z,44.30
2022-09-21T06:06:42.780Z,44.50
2022-09-21T06:11:45.787Z,45.10
2022-09-21T06:16:48.819Z,46.40
2022-09-21T06:21:53.186Z,44.20
2022-09-21T06:26:56.171Z,44.60
2022-09-21T06:31:59.895Z,45.80
2022-09-21T06:37:04.269Z,46.00
2022-09-21T06:42:07.439Z,46.00
2022-09-21T06:47:10.458Z,45.90
2022-09-21T06:52:14.799Z,46.00
2022-09-21T06:57:17.889Z,46.10
2022-09-21T07:02:21.221Z,46.70
2022-09-21T07:07:25.908Z,46.20
2022-09-21T07:12:29.358Z,46.20
2022-09-21T07:17:36.420Z,46.20
2022-09-21T07:22:40.793Z,46.10
2022-09-21T07:27:43.798Z,46.20
2022-09-21T07:32:47.049Z,46.10
2022-09-21T07:37:51.488Z,46.20
2022-09-21T07:42:58.326Z,46.10
2022-09-21T07:48:04.742Z,46.00
2022-09-21T07:53:09.201Z,46.20
2022-09-21T07:58:29.882Z,46.10
2022-09-21T08:03:32.876Z,46.30
2022-09-21T08:08:37.550Z,46.60
2022-09-21T08:13:40.514Z,46.80
2022-09-21T08:18:44.005Z,47.00
2022-09-21T08:23:49.285Z,47.20
2022-09-21T08:28:56.538Z,47.40
2022-09-21T08:34:00.610Z,48.30
2022-09-21T08:39:08.026Z,47.80
2022-09-21T08:44:16.146Z,47.90
2022-09-21T08:49:24.126Z,48.10
2022-09-21T08:54:36.080Z,48.20
2022-09-21T08:59:42.198Z,48.30
2022-09-21T09:04:53.529Z,48.50
2022-09-21T09:10:06.839Z,48.70
2022-09-21T09:15:30.322Z,48.90
2022-09-21T09:20:37.642Z,49.10
2022-09-21T09:25:44.545Z,49.20
2022-09-21T09:30:50.843Z,49.30
2022-09-21T09:35:59.281Z,49.40
2022-09-21T09:41:34.728Z,49.50
2022-09-21T09:46:49.030Z,49.80
2022-09-21T09:51:52.633Z,49.80
2022-09-21T09:56:56.946Z,50.50
2022-09-21T10:02:03.197Z,50.10
2022-09-21T10:07:06.340Z,50.80
2022-09-21T10:12:24.770Z,50.30
2022-09-21T10:17:28.180Z,50.20
2022-09-21T10:22:31.447Z,50.30
2022-09-21T10:27:39.134Z,50.40
2022-09-21T10:32:57.111Z,50.50
2022-09-21T10:38:22.160Z,51.10
2022-09-21T10:43:42.642Z,50.50
2022-09-21T10:48:47.554Z,50.50
2022-09-21T10:53:53.832Z,50.60
2022-09-21T10:59:23.641Z,50.60
2022-09-21T11:04:38.099Z,50.70
2022-09-21T11:09:46.775Z,50.70
2022-09-21T11:14:57.774Z,50.80
2022-09-21T11:20:07.898Z,47.80
2022-09-21T11:25:28.635Z,44.10
2022-09-21T11:30:42.332Z,45.80
2022-09-21T11:35:53.982Z,46.20
2022-09-21T11:41:09.540Z,46.90
2022-09-21T11:46:25.638Z,47.70
2022-09-21T11:51:42.256Z,48.40
2022-09-21T11:56:50.270Z,48.50
2022-09-21T12:02:16.215Z,49.00
2022-09-21T12:07:32.819Z,49.00
2022-09-21T12:12:42.414Z,49.70
2022-09-21T12:17:55.292Z,49.40
2022-09-21T12:23:03.282Z,49.50
2022-09-21T12:28:13.438Z,49.60
2022-09-21T12:33:24.075Z,49.50
2022-09-21T12:38:31.162Z,49.70
2022-09-21T12:43:39.337Z,49.70
2022-09-21T12:48:45.529Z,50.50
2022-09-21T12:53:51.370Z,50.10
2022-09-21T12:59:24.489Z,50.70
2022-09-21T13:04:41.838Z,50.80
2022-09-21T13:09:47.186Z,50.20
2022-09-21T13:14:53.517Z,50.30
2022-09-21T13:20:06.196Z,50.30
2022-09-21T13:25:21.510Z,50.40
2022-09-21T13:30:32.990Z,50.40
2022-09-21T13:36:30.070Z,50.40
2022-09-21T13:41:59.004Z,50.50
2022-09-21T13:46:59.150Z,50.50
2022-09-21T13:52:07.294Z,50.40
2022-09-21T13:57:21.083Z,50.50
2022-09-21T14:02:32.506Z,50.50
2022-09-21T14:12:45.426Z,50.20
2022-09-21T14:18:20.621Z,50.30
2022-09-21T14:23:33.803Z,50.40
2022-09-21T14:28:41.194Z,50.40
2022-09-21T14:33:48.149Z,50.40
2022-09-21T14:38:59.583Z,50.20
2022-09-21T14:44:02.826Z,49.30
2022-09-21T14:49:23.030Z,49.60
2022-09-21T14:54:38.818Z,49.70
2022-09-21T14:59:58.879Z,49.80
2022-09-21T15:05:13.312Z,49.80
2022-09-21T15:10:56.810Z,49.80
2022-09-21T15:16:17.803Z,49.70
2022-09-21T15:21:24.271Z,49.70
2022-09-21T15:26:31.811Z,49.70
2022-09-21T15:31:36.148Z,49.60
2022-09-21T15:36:41.397Z,49.50
2022-09-21T15:41:47.455Z,49.50
2022-09-21T15:46:53.365Z,49.40
2022-09-21T15:52:01.342Z,49.70
2022-09-21T15:57:22.231Z,49.50
2022-09-21T16:02:27.738Z,49.30
2022-09-21T16:07:33.626Z,49.40
2022-09-21T16:12:42.386Z,48.80
2022-09-21T16:17:58.026Z,48.40
2022-09-21T16:23:06.994Z,48.20
2022-09-21T16:28:30.531Z,48.20
2022-09-21T16:33:38.114Z,48.80
2022-09-21T16:38:41.046Z,48.90
2022-09-21T16:43:45.504Z,48.70
2022-09-21T16:48:48.911Z,48.60
2022-09-21T16:53:51.899Z,48.40
2022-09-21T16:58:57.110Z,48.50
2022-09-21T17:04:00.038Z,47.90
2022-09-21T17:09:06.609Z,48.20
2022-09-21T17:14:13.243Z,48.00
2022-09-21T17:19:17.051Z,47.50
2022-09-21T17:24:46.011Z,47.90
2022-09-21T17:29:48.190Z,47.80
2022-09-21T17:34:56.307Z,47.60
2022-09-21T17:39:59.302Z,47.10
2022-09-21T17:45:14.304Z,46.80
2022-09-21T17:50:23.129Z,47.10
2022-09-21T17:55:26.755Z,45.70
2022-09-21T18:00:41.990Z,45.90
2022-09-21T18:05:45.234Z,46.30
2022-09-21T18:10:58.271Z,46.20
2022-09-21T18:16:19.799Z,45.30
2022-09-21T18:21:25.102Z,45.90
2022-09-21T18:26:28.374Z,46.30
2022-09-21T18:31:42.976Z,46.40
2022-09-21T18:36:52.550Z,46.50
2022-09-21T18:42:07.790Z,47.30
2022-09-21T18:47:18.525Z,47.20
2022-09-21T18:52:40.874Z,46.90
2022-09-21T18:57:44.658Z,47.50
2022-09-21T19:03:12.784Z,47.00
2022-09-21T19:08:20.031Z,46.80
2022-09-21T19:13:42.671Z,46.80
2022-09-21T19:19:02.399Z,46.90
2022-09-21T19:24:13.832Z,46.90
2022-09-21T19:29:48.029Z,46.90
2022-09-21T19:34:54.365Z,47.70
2022-09-21T19:39:57.651Z,47.10
2022-09-21T19:45:21.898Z,47.00
2022-09-21T19:50:34.482Z,47.20
2022-09-21T19:56:00.199Z,47.60
2022-09-21T20:01:03.576Z,47.10
2022-09-21T20:06:15.080Z,47.00
2022-09-21T20:11:23.391Z,47.10
2022-09-21T20:16:40.460Z,47.10
2022-09-21T20:21:47.012Z,46.50
2022-09-21T20:26:51.757Z,46.60
2022-09-21T20:31:54.896Z,46.40
2022-09-21T20:36:59.196Z,46.50
2022-09-21T20:42:03.934Z,46.70
2022-09-21T20:47:06.948Z,46.60
2022-09-21T20:52:11.273Z,46.40
2022-09-21T20:57:14.273Z,46.60
2022-09-21T21:02:17.609Z,46.50
2022-09-21T21:07:23.047Z,46.20
2022-09-21T21:12:27.199Z,45.90
2022-09-21T21:17:30.155Z,46.30
2022-09-21T21:22:34.586Z,46.90
2022-09-21T21:27:37.898Z,46.60
2022-09-21T21:32:42.279Z,46.50
2022-09-21T21:37:46.594Z,47.20
2022-09-21T21:42:49.555Z,46.50
2022-09-21T21:47:52.535Z,46.40
2022-09-21T21:52:59.858Z,46.40
2022-09-21T21:58:02.802Z,46.40
2022-09-21T22:03:06.550Z,46.50
2022-09-21T22:08:11.343Z,46.50
2022-09-21T22:13:14.371Z,46.50
2022-09-21T22:18:17.379Z,46.50
2022-09-21T22:23:21.687Z,46.40
2022-09-21T22:28:24.623Z,46.30
2022-09-21T22:33:31.204Z,46.20
2022-09-21T22:38:42.775Z,46.20
2022-09-21T22:43:46.423Z,46.00
2022-09-21T22:48:49.531Z,45.90
2022-09-21T22:53:54.012Z,45.70
2022-09-21T22:58:58.958Z,46.20
2022-09-21T23:04:03.936Z,45.60
2022-09-21T23:09:10.683Z,45.60
2022-09-21T23:14:15.151Z,45.50
2022-09-21T23:19:18.114Z,45.50
2022-09-21T23:24:22.590Z,45.40
2022-09-21T23:29:25.523Z,45.30
2022-09-21T23:34:28.450Z,45.30
2022-09-21T23:39:32.896Z,45.20
2022-09-21T23:44:36.047Z,45.10
2022-09-21T23:49:39.092Z,45.20
2022-09-21T23:54:45.274Z,45.10
2022-09-21T23:59:50.094Z,45.10
